createdAt,value
2022-08-05T00:00:15.990Z,60.78
2022-08-05T00:02:50.794Z,60.46
2022-08-05T00:06:02.723Z,60.83
2022-08-05T00:08:20.016Z,61.51
2022-08-05T00:11:00.404Z,62.16
2022-08-05T00:13:38.421Z,62.24
2022-08-05T00:16:10.883Z,62.12
2022-08-05T00:18:41.046Z,62.10
2022-08-05T00:21:10.966Z,61.23
2022-08-05T00:23:45.681Z,60.88
2022-08-05T00:26:16.353Z,60.20
2022-08-05T00:28:45.903Z,60.47
2022-08-05T00:31:14.401Z,60.20
2022-08-05T00:34:55.196Z,60.29
2022-08-05T00:37:13.232Z,60.50
2022-08-05T00:39:19.523Z,61.48
2022-08-05T00:41:51.594Z,61.97
2022-08-05T00:44:20.923Z,62.50
2022-08-05T00:46:54.327Z,62.14
2022-08-05T00:49:32.725Z,62.49
2022-08-05T00:52:01.051Z,63.49
2022-08-05T00:54:30.376Z,63.59
2022-08-05T00:56:58.422Z,63.52
2022-08-05T00:59:26.271Z,64.92
2022-08-05T01:02:02.636Z,64.89
2022-08-05T01:04:30.536Z,64.93
2022-08-05T01:06:58.428Z,64.65
2022-08-05T01:09:27.383Z,64.12
2022-08-05T01:12:04.825Z,64.03
2022-08-05T01:14:50.070Z,62.92
2022-08-05T01:17:22.777Z,63.81
2022-08-05T01:20:02.149Z,63.17
2022-08-05T01:22:41.934Z,64.56
2022-08-05T01:25:40.935Z,62.58
2022-08-05T01:28:29.190Z,62.39
2022-08-05T01:31:02.883Z,61.61
2022-08-05T01:33:35.891Z,62.11
2022-08-05T01:36:13.185Z,63.19
2022-08-05T01:38:45.477Z,62.94
2022-08-05T01:41:15.626Z,62.49
2022-08-05T01:43:45.645Z,61.63
2022-08-05T01:46:42.313Z,63.02
2022-08-05T01:49:12.215Z,63.99
2022-08-05T01:51:51.978Z,64.74
2022-08-05T01:54:20.608Z,64.78
2022-08-05T01:58:10.036Z,64.46
2022-08-05T01:59:47.029Z,64.07
2022-08-05T02:02:15.931Z,63.67
2022-08-05T02:04:49.655Z,63.91
2022-08-05T02:07:21.951Z,63.96
2022-08-05T02:09:50.980Z,63.57
2022-08-05T02:12:25.245Z,63.65
2022-08-05T02:15:03.080Z,63.13
2022-08-05T02:18:28.292Z,62.88
2022-08-05T02:20:41.733Z,62.95
2022-08-05T02:23:12.157Z,63.45
2022-08-05T02:25:49.818Z,62.91
2022-08-05T02:28:28.852Z,62.66
2022-08-05T02:31:14.409Z,62.38
2022-08-05T02:33:57.399Z,62.34
2022-08-05T02:36:27.578Z,62.32
2022-08-05T02:38:59.622Z,61.75
2022-08-05T02:41:43.267Z,61.62
2022-08-05T02:44:17.881Z,61.56
2022-08-05T02:46:59.816Z,61.49
2022-08-05T02:49:36.701Z,61.40
2022-08-05T02:52:09.045Z,61.86
2022-08-05T02:54:41.315Z,62.01
2022-08-05T02:58:12.348Z,61.93
2022-08-05T03:00:01.300Z,61.96
2022-08-05T03:02:35.060Z,62.59
2022-08-05T03:05:04.147Z,62.52
2022-08-05T03:08:00.736Z,62.69
2022-08-05T03:10:24.559Z,63.76
2022-08-05T03:12:54.543Z,64.55
2022-08-05T03:15:24.328Z,64.71
2022-08-05T03:17:55.761Z,66.29
2022-08-05T03:20:25.347Z,65.97
2022-08-05T03:22:57.272Z,66.47
2022-08-05T03:25:33.533Z,67.70
2022-08-05T03:28:14.634Z,67.74
2022-08-05T03:30:47.957Z,67.46
2022-08-05T03:33:17.804Z,68.23
2022-08-05T03:35:46.663Z,68.51
2022-08-05T03:38:15.160Z,69.54
2022-08-05T03:40:45.233Z,71.08
2022-08-05T03:44:09.701Z,73.29
2022-08-05T03:46:04.581Z,74.38
2022-08-05T03:48:35.182Z,73.45
2022-08-05T03:52:37.483Z,75.33
2022-08-05T03:55:53.613Z,75.64
2022-08-05T03:56:50.238Z,77.18
2022-08-05T03:59:24.557Z,78.43
2022-08-05T04:01:53.352Z,78.99
2022-08-05T04:04:28.860Z,79.69
2022-08-05T04:06:56.955Z,79.68
2022-08-05T04:09:26.542Z,79.79
2022-08-05T04:11:56.552Z,80.35
2022-08-05T04:14:29.864Z,81.44
2022-08-05T04:16:59.638Z,82.15
2022-08-05T04:19:29.212Z,82.38
2022-08-05T04:22:09.669Z,82.16
2022-08-05T04:24:44.458Z,82.17
2022-08-05T04:27:13.355Z,81.85
2022-08-05T04:29:41.802Z,82.38
2022-08-05T04:32:10.498Z,81.99
2022-08-05T04:34:43.091Z,82.31
2022-08-05T04:37:11.433Z,82.31
2022-08-05T04:39:40.763Z,82.72
2022-08-05T04:42:09.779Z,83.31
2022-08-05T04:44:37.642Z,83.81
2022-08-05T04:47:09.757Z,83.49
2022-08-05T04:50:03.013Z,82.65
2022-08-05T04:52:28.572Z,82.82
2022-08-05T04:54:57.364Z,82.64
2022-08-05T04:57:28.589Z,82.62
2022-08-05T04:59:58.494Z,81.58
2022-08-05T05:02:36.841Z,82.39
2022-08-05T05:05:16.546Z,82.13
2022-08-05T05:07:56.474Z,81.32
2022-08-05T05:10:29.706Z,81.73
2022-08-05T05:12:57.806Z,82.40
2022-08-05T05:15:57.895Z,81.78
2022-08-05T05:18:31.626Z,80.89
2022-08-05T05:21:04.351Z,81.10
2022-08-05T05:23:39.319Z,81.20
2022-08-05T05:26:28.416Z,81.60
2022-08-05T05:29:00.977Z,81.64
2022-08-05T05:34:02.617Z,81.69
2022-08-05T05:36:32.751Z,82.16
2022-08-05T05:39:05.441Z,81.80
2022-08-05T05:41:40.554Z,82.92
2022-08-05T05:44:35.995Z,81.97
2022-08-05T05:46:58.413Z,82.30
2022-08-05T05:49:33.073Z,81.80
2022-08-05T05:52:06.039Z,81.64
2022-08-05T05:54:50.144Z,81.35
2022-08-05T05:57:19.815Z,81.64
2022-08-05T05:59:48.909Z,81.40
2022-08-05T06:02:17.353Z,81.65
2022-08-05T06:05:03.392Z,81.89
2022-08-05T06:07:41.593Z,81.04
2022-08-05T06:10:11.309Z,81.59
2022-08-05T06:12:42.272Z,80.70
2022-08-05T06:15:16.412Z,80.76
2022-08-05T06:17:54.258Z,81.42
2022-08-05T06:20:23.106Z,81.68
2022-08-05T06:22:52.351Z,81.67
2022-08-05T06:25:25.207Z,81.08
2022-08-05T06:28:12.249Z,81.56
2022-08-05T06:30:49.158Z,81.16
2022-08-05T06:33:19.430Z,80.79
2022-08-05T06:36:07.641Z,80.80
2022-08-05T06:38:39.237Z,81.16
2022-08-05T06:41:15.046Z,80.68
2022-08-05T06:43:57.440Z,80.14
2022-08-05T06:46:29.869Z,79.31
2022-08-05T06:48:59.489Z,79.95
2022-08-05T06:51:30.092Z,80.33
2022-08-05T06:54:02.484Z,79.54
2022-08-05T06:56:34.484Z,79.47
2022-08-05T06:59:03.009Z,77.34
2022-08-05T07:01:32.266Z,78.00
2022-08-05T07:04:02.443Z,79.74
2022-08-05T07:06:31.754Z,78.58
2022-08-05T07:09:04.230Z,79.32
2022-08-05T07:11:37.351Z,79.02
2022-08-05T07:14:29.522Z,80.34
2022-08-05T07:18:01.615Z,79.66
2022-08-05T07:22:37.133Z,79.69
2022-08-05T07:25:22.065Z,80.28
2022-08-05T07:28:01.433Z,78.86
2022-08-05T07:30:33.588Z,79.04
2022-08-05T07:33:05.088Z,79.59
2022-08-05T07:36:04.784Z,79.55
2022-08-05T07:38:32.979Z,80.28
2022-08-05T07:41:35.216Z,79.47
2022-08-05T07:43:56.406Z,80.00
2022-08-05T07:46:26.379Z,80.14
2022-08-05T07:49:03.076Z,80.23
2022-08-05T07:51:40.546Z,79.46
2022-08-05T07:54:18.851Z,78.99
2022-08-05T07:57:13.850Z,79.29
2022-08-05T07:59:39.870Z,80.50
2022-08-05T08:02:15.264Z,80.59
2022-08-05T08:04:44.882Z,80.71
2022-08-05T08:07:13.495Z,79.57
2022-08-05T08:09:41.401Z,78.30
2022-08-05T08:12:27.321Z,77.67
2022-08-05T08:15:02.526Z,78.93
2022-08-05T08:17:31.536Z,81.30
2022-08-05T08:20:21.496Z,79.30
2022-08-05T08:22:52.556Z,78.92
2022-08-05T08:25:26.427Z,78.80
2022-08-05T08:27:56.506Z,78.75
2022-08-05T08:30:32.726Z,79.18
2022-08-05T08:33:08.767Z,79.62
2022-08-05T08:35:53.802Z,78.81
2022-08-05T08:38:35.739Z,77.86
2022-08-05T08:41:08.754Z,77.71
2022-08-05T08:45:24.776Z,76.39
2022-08-05T08:46:28.760Z,76.22
2022-08-05T08:49:06.093Z,76.13
2022-08-05T08:52:02.900Z,76.61
2022-08-05T08:54:36.463Z,76.55
2022-08-05T08:57:11.220Z,75.94
2022-08-05T08:59:42.046Z,74.83
2022-08-05T09:02:16.642Z,75.40
2022-08-05T09:04:58.479Z,75.70
2022-08-05T09:07:39.553Z,75.91
2022-08-05T09:10:22.587Z,76.58
2022-08-05T09:12:55.808Z,74.43
2022-08-05T09:15:25.282Z,73.65
2022-08-05T09:17:53.389Z,73.74
2022-08-05T09:20:37.754Z,74.01
2022-08-05T09:23:19.792Z,74.06
2022-08-05T09:26:01.205Z,72.25
2022-08-05T09:28:34.387Z,72.18
2022-08-05T09:31:18.131Z,71.13
2022-08-05T09:33:55.168Z,71.41
2022-08-05T09:36:27.411Z,70.87
2022-08-05T09:38:59.401Z,70.25
2022-08-05T09:41:27.413Z,72.15
2022-08-05T09:44:01.202Z,71.64
2022-08-05T09:46:31.960Z,71.90
2022-08-05T09:49:07.521Z,72.10
2022-08-05T09:51:49.366Z,70.71
2022-08-05T09:54:28.754Z,69.35
2022-08-05T09:57:01.653Z,69.71
2022-08-05T09:59:34.777Z,70.36
2022-08-05T10:02:07.097Z,67.15
2022-08-05T10:04:40.927Z,67.44
2022-08-05T10:07:20.009Z,66.62
2022-08-05T10:10:14.313Z,68.17
2022-08-05T10:12:50.403Z,69.02
2022-08-05T10:15:23.946Z,68.94
2022-08-05T10:18:08.652Z,69.23
2022-08-05T10:20:39.841Z,68.43
2022-08-05T10:23:08.973Z,69.44
2022-08-05T10:25:57.497Z,67.17
2022-08-05T10:28:30.331Z,67.64
2022-08-05T10:32:48.713Z,68.08
2022-08-05T10:33:54.071Z,67.84
2022-08-05T10:36:23.437Z,68.48
2022-08-05T10:38:59.721Z,67.24
2022-08-05T10:41:45.148Z,69.02
2022-08-05T10:44:18.453Z,67.12
2022-08-05T10:46:50.911Z,66.99
2022-08-05T10:49:27.207Z,66.34
2022-08-05T10:52:05.011Z,66.35
2022-08-05T10:54:56.061Z,66.68
2022-08-05T10:57:30.989Z,68.13
2022-08-05T11:00:19.770Z,68.45
2022-08-05T11:03:25.169Z,67.56
2022-08-05T11:06:15.429Z,68.01
2022-08-05T11:09:13.009Z,68.15
2022-08-05T11:17:58.178Z,66.09
2022-08-05T11:20:44.617Z,65.19
2022-08-05T11:24:04.857Z,67.12
2022-08-05T11:26:28.503Z,62.68
2022-08-05T11:28:58.740Z,63.55
2022-08-05T11:31:54.126Z,61.98
2022-08-05T11:34:37.287Z,62.51
2022-08-05T11:37:06.246Z,61.69
2022-08-05T11:39:55.334Z,58.45
2022-08-05T11:42:28.841Z,58.03
2022-08-05T11:45:02.943Z,54.82
2022-08-05T11:47:49.882Z,53.38
2022-08-05T11:50:18.652Z,54.16
2022-08-05T11:52:49.620Z,53.91
2022-08-05T11:55:20.498Z,53.69
2022-08-05T11:58:10.521Z,51.58
2022-08-05T12:00:38.462Z,46.71
2022-08-05T12:03:23.963Z,48.08
2022-08-05T12:06:02.826Z,46.10
2022-08-05T12:08:31.515Z,45.34
2022-08-05T12:11:06.123Z,42.22
2022-08-05T12:13:48.821Z,45.75
2022-08-05T12:16:19.554Z,41.38
2022-08-05T12:18:52.380Z,44.29
2022-08-05T12:21:23.580Z,41.90
2022-08-05T12:24:05.114Z,42.61
2022-08-05T12:26:36.143Z,43.05
2022-08-05T12:29:05.085Z,42.18
2022-08-05T12:31:43.480Z,44.42
2022-08-05T12:34:21.232Z,39.54
2022-08-05T12:36:51.745Z,40.62
2022-08-05T12:39:20.159Z,37.09
2022-08-05T12:41:49.613Z,36.07
2022-08-05T12:44:33.236Z,37.34
2022-08-05T12:47:02.839Z,35.67
2022-08-05T12:50:02.300Z,37.74
2022-08-05T12:52:37.778Z,40.41
2022-08-05T12:55:22.637Z,40.63
2022-08-05T12:58:49.311Z,42.60
2022-08-05T13:02:02.361Z,42.21
2022-08-05T13:03:39.086Z,41.16
2022-08-05T13:06:13.762Z,37.76
2022-08-05T13:08:49.113Z,35.91
2022-08-05T13:11:25.647Z,37.17
2022-08-05T13:14:20.460Z,35.77
2022-08-05T13:17:04.375Z,33.60
2022-08-05T13:19:51.746Z,35.01
2022-08-05T13:22:28.557Z,35.83
2022-08-05T13:25:00.841Z,40.00
2022-08-05T13:27:35.496Z,40.19
2022-08-05T13:30:33.920Z,43.99
2022-08-05T13:33:01.226Z,45.12
2022-08-05T13:35:43.130Z,45.27
2022-08-05T13:38:28.160Z,44.50
2022-08-05T13:40:59.882Z,45.25
2022-08-05T13:43:45.722Z,44.02
2022-08-05T13:46:30.858Z,45.77
2022-08-05T13:49:09.833Z,41.53
2022-08-05T13:51:40.954Z,40.09
2022-08-05T13:54:11.977Z,37.71
2022-08-05T13:56:45.229Z,36.41
2022-08-05T13:59:20.245Z,34.78
2022-08-05T14:01:56.663Z,33.54
2022-08-05T14:04:49.391Z,34.57
2022-08-05T14:07:26.466Z,33.23
2022-08-05T14:10:08.243Z,37.11
2022-08-05T14:12:36.630Z,38.50
2022-08-05T14:16:05.605Z,41.00
2022-08-05T14:17:59.399Z,39.45
2022-08-05T14:20:27.899Z,39.26
2022-08-05T14:22:56.043Z,41.57
2022-08-05T14:25:27.936Z,43.18
2022-08-05T14:27:56.783Z,44.69
2022-08-05T14:30:27.894Z,46.22
2022-08-05T14:32:57.563Z,45.85
2022-08-05T14:35:37.213Z,46.45
2022-08-05T14:38:32.290Z,45.30
2022-08-05T14:41:05.805Z,45.19
2022-08-05T14:44:01.666Z,41.35
2022-08-05T14:46:28.857Z,42.45
2022-08-05T14:49:03.664Z,42.07
2022-08-05T14:51:35.895Z,43.57
2022-08-05T14:54:27.638Z,42.28
2022-08-05T14:56:54.584Z,40.96
2022-08-05T14:59:22.985Z,39.95
2022-08-05T15:01:51.113Z,39.77
2022-08-05T15:04:23.157Z,38.41
2022-08-05T15:06:55.304Z,38.82
2022-08-05T15:09:54.241Z,39.25
2022-08-05T15:12:16.454Z,38.11
2022-08-05T15:14:50.289Z,38.68
2022-08-05T15:17:45.987Z,38.50
2022-08-05T15:20:18.240Z,39.11
2022-08-05T15:22:52.192Z,38.68
2022-08-05T15:25:23.695Z,39.43
2022-08-05T15:28:13.205Z,39.06
2022-08-05T15:30:43.342Z,39.70
2022-08-05T15:33:11.878Z,38.73
2022-08-05T15:35:44.915Z,38.89
2022-08-05T15:38:34.811Z,37.50
2022-08-05T15:41:23.059Z,37.35
2022-08-05T15:43:49.866Z,35.03
2022-08-05T15:46:18.113Z,34.39
2022-08-05T15:48:52.905Z,34.58
2022-08-05T15:52:04.416Z,33.81
2022-08-05T15:54:16.615Z,32.04
2022-08-05T15:56:44.588Z,31.46
2022-08-05T15:59:21.664Z,29.42
2022-08-05T16:01:52.885Z,28.97
2022-08-05T16:04:25.209Z,28.08
2022-08-05T16:06:55.918Z,30.45
2022-08-05T16:09:24.797Z,27.85
2022-08-05T16:11:53.898Z,26.04
2022-08-05T16:14:22.371Z,25.75
2022-08-05T16:16:50.590Z,25.43
2022-08-05T16:19:25.627Z,27.69
2022-08-05T16:22:10.792Z,28.76
2022-08-05T16:24:51.321Z,27.80
2022-08-05T16:27:47.156Z,27.92
2022-08-05T16:30:26.415Z,28.45
2022-08-05T16:32:55.284Z,31.09
2022-08-05T16:35:28.002Z,30.51
2022-08-05T16:38:15.257Z,29.92
2022-08-05T16:40:52.165Z,30.40
2022-08-05T16:43:24.206Z,29.18
2022-08-05T16:46:04.678Z,30.29
2022-08-05T16:48:37.518Z,29.98
2022-08-05T16:51:10.087Z,30.31
2022-08-05T16:54:04.366Z,29.50
2022-08-05T16:56:30.128Z,30.71
2022-08-05T16:58:58.316Z,29.35
2022-08-05T17:01:26.901Z,29.77
2022-08-05T17:03:56.924Z,30.84
2022-08-05T17:06:25.000Z,30.65
2022-08-05T17:08:54.716Z,31.62
2022-08-05T17:11:23.959Z,28.38
2022-08-05T17:14:00.306Z,28.63
2022-08-05T17:16:36.794Z,29.15
2022-08-05T17:19:07.097Z,26.55
2022-08-05T17:21:37.615Z,25.35
2022-08-05T17:24:28.038Z,24.61
2022-08-05T17:26:58.150Z,24.00
2022-08-05T17:29:33.916Z,22.45
2022-08-05T17:32:08.628Z,22.47
2022-08-05T17:34:40.147Z,23.07
2022-08-05T17:37:29.490Z,22.99
2022-08-05T17:40:00.270Z,21.92
2022-08-05T17:42:32.412Z,22.72
2022-08-05T17:45:18.242Z,22.93
2022-08-05T17:47:53.995Z,23.54
2022-08-05T17:50:28.654Z,23.99
2022-08-05T17:52:59.868Z,23.04
2022-08-05T17:55:38.468Z,22.76
2022-08-05T17:58:09.771Z,23.84
2022-08-05T18:00:44.727Z,24.55
2022-08-05T18:03:28.168Z,27.02
2022-08-05T18:06:05.772Z,28.14
2022-08-05T18:08:34.237Z,28.84
2022-08-05T18:11:03.828Z,28.39
2022-08-05T18:13:36.422Z,28.52
2022-08-05T18:16:05.535Z,28.97
2022-08-05T18:18:39.917Z,29.28
2022-08-05T18:21:13.252Z,30.33
2022-08-05T18:23:48.065Z,30.51
2022-08-05T18:26:18.111Z,30.32
2022-08-05T18:28:46.853Z,32.54
2022-08-05T18:31:16.046Z,32.65
2022-08-05T18:33:46.762Z,32.74
2022-08-05T18:36:15.766Z,33.39
2022-08-05T18:38:43.830Z,34.05
2022-08-05T18:41:57.573Z,34.19
2022-08-05T18:44:06.249Z,34.88
2022-08-05T18:46:35.993Z,35.52
2022-08-05T18:49:30.797Z,36.06
2022-08-05T18:52:32.926Z,35.99
2022-08-05T18:55:01.420Z,37.21
2022-08-05T18:57:43.074Z,35.98
2022-08-05T19:00:20.383Z,36.82
2022-08-05T19:02:48.871Z,36.42
2022-08-05T19:06:11.444Z,36.22
2022-08-05T19:08:12.219Z,37.07
2022-08-05T19:10:41.772Z,36.47
2022-08-05T19:13:12.303Z,36.21
2022-08-05T19:16:00.011Z,36.45
2022-08-05T19:18:31.659Z,37.33
2022-08-05T19:21:00.237Z,36.72
2022-08-05T19:24:06.677Z,36.78
2022-08-05T19:26:19.425Z,37.11
2022-08-05T19:28:47.349Z,36.86
2022-08-05T19:31:19.499Z,37.74
2022-08-05T19:33:56.889Z,37.59
2022-08-05T19:36:25.553Z,37.95
2022-08-05T19:38:54.869Z,38.06
2022-08-05T19:41:58.557Z,38.38
2022-08-05T19:44:15.078Z,39.07
2022-08-05T19:46:44.492Z,38.66
2022-08-05T19:49:17.189Z,39.47
2022-08-05T19:52:09.080Z,39.71
2022-08-05T19:54:35.083Z,40.60
2022-08-05T19:57:06.675Z,39.62
2022-08-05T19:59:55.225Z,40.07
2022-08-05T20:02:30.279Z,39.80
2022-08-05T20:04:59.888Z,40.51
2022-08-05T20:07:46.224Z,40.78
2022-08-05T20:10:17.206Z,41.14
2022-08-05T20:12:47.929Z,40.96
2022-08-05T20:15:48.758Z,40.99
2022-08-05T20:18:09.761Z,41.18
2022-08-05T20:20:48.240Z,42.08
2022-08-05T20:23:16.236Z,42.58
2022-08-05T20:25:44.333Z,43.22
2022-08-05T20:28:14.665Z,42.91
2022-08-05T20:30:42.727Z,43.04
2022-08-05T20:33:12.310Z,43.23
2022-08-05T20:35:45.276Z,43.98
2022-08-05T20:38:20.163Z,44.10
2022-08-05T20:40:55.241Z,44.33
2022-08-05T20:43:57.485Z,44.31
2022-08-05T20:46:18.627Z,45.25
2022-08-05T20:48:54.766Z,45.42
2022-08-05T20:51:22.742Z,45.62
2022-08-05T20:53:56.580Z,45.25
2022-08-05T20:56:29.899Z,45.36
2022-08-05T20:58:59.995Z,46.53
2022-08-05T21:01:41.984Z,46.47
2022-08-05T21:04:11.407Z,46.06
2022-08-05T21:06:45.751Z,46.37
2022-08-05T21:09:15.032Z,46.22
2022-08-05T21:12:06.988Z,46.50
2022-08-05T21:14:34.600Z,47.41
2022-08-05T21:17:04.817Z,47.87
2022-08-05T21:19:47.107Z,47.74
2022-08-05T21:22:17.665Z,48.53
2022-08-05T21:24:49.031Z,47.99
2022-08-05T21:27:20.428Z,47.95
2022-08-05T21:29:55.279Z,48.45
2022-08-05T21:32:24.508Z,48.34
2022-08-05T21:35:08.290Z,48.57
2022-08-05T21:37:52.711Z,48.32
2022-08-05T21:40:21.593Z,49.14
2022-08-05T21:42:52.049Z,49.62
2022-08-05T21:45:24.226Z,49.09
2022-08-05T21:47:56.214Z,48.97
2022-08-05T21:50:26.979Z,49.28
2022-08-05T21:52:59.008Z,49.36
2022-08-05T21:55:43.002Z,49.27
2022-08-05T21:58:30.842Z,49.69
2022-08-05T22:01:00.955Z,50.13
2022-08-05T22:03:48.205Z,49.76
2022-08-05T22:06:22.743Z,50.28
2022-08-05T22:08:51.701Z,49.81
2022-08-05T22:11:34.436Z,50.04
2022-08-05T22:14:06.283Z,50.32
2022-08-05T22:16:56.789Z,50.48
2022-08-05T22:20:00.503Z,50.44
2022-08-05T22:22:15.915Z,50.46
2022-08-05T22:25:01.924Z,50.29
2022-08-05T22:28:09.335Z,51.54
2022-08-05T22:30:35.871Z,50.94
2022-08-05T22:33:04.426Z,51.01
2022-08-05T22:35:48.559Z,51.73
2022-08-05T22:38:19.759Z,51.91
2022-08-05T22:40:49.924Z,51.39
2022-08-05T22:43:37.331Z,51.23
2022-08-05T22:46:13.536Z,51.24
2022-08-05T22:48:51.417Z,51.10
2022-08-05T22:51:23.343Z,51.60
2022-08-05T22:54:08.502Z,50.90
2022-08-05T22:56:36.422Z,51.26
2022-08-05T22:59:46.114Z,51.35
2022-08-05T23:02:04.178Z,51.84
2022-08-05T23:04:34.356Z,51.81
2022-08-05T23:07:02.260Z,52.37
2022-08-05T23:09:57.333Z,52.75
2022-08-05T23:12:24.093Z,53.27
2022-08-05T23:14:52.508Z,53.37
2022-08-05T23:17:34.969Z,53.31
2022-08-05T23:20:16.703Z,54.51
2022-08-05T23:22:47.420Z,55.31
2022-08-05T23:25:52.714Z,54.21
2022-08-05T23:28:06.906Z,54.29
2022-08-05T23:30:39.948Z,54.37
2022-08-05T23:33:22.355Z,53.73
2022-08-05T23:35:59.437Z,54.91
2022-08-05T23:38:27.324Z,55.29
2022-08-05T23:40:56.585Z,55.85
2022-08-05T23:43:37.207Z,56.14
2022-08-05T23:46:21.223Z,56.16
2022-08-05T23:49:01.201Z,56.20
2022-08-05T23:51:53.933Z,56.30
2022-08-05T23:54:25.847Z,56.39
2022-08-05T23:56:57.146Z,57.23
